sensor_id;sensor_type;location;lat;lon;timestamp;pressure;altitude;pressure_sealevel;temperature;humidity
19526;BME280;9907;42.676;26.348;2022-07-29T00:01:44;98896.38;;;23.72;53.14
19526;BME280;9907;42.676;26.348;2022-07-29T00:04:10;98891.16;;;23.71;53.22
19526;BME280;9907;42.676;26.348;2022-07-29T00:06:36;98896.81;;;23.69;52.92
19526;BME280;9907;42.676;26.348;2022-07-29T00:09:02;98888.63;;;23.69;52.75
19526;BME280;9907;42.676;26.348;2022-07-29T00:11:27;98884.47;;;23.67;52.61
19526;BME280;9907;42.676;26.348;2022-07-29T00:13:53;98880.06;;;23.66;52.87
19526;BME280;9907;42.676;26.348;2022-07-29T00:16:18;98887.66;;;23.64;52.76
19526;BME280;9907;42.676;26.348;2022-07-29T00:18:44;98889.75;;;23.62;52.67
19526;BME280;9907;42.676;26.348;2022-07-29T00:21:09;98887.28;;;23.60;53.00
19526;BME280;9907;42.676;26.348;2022-07-29T00:23:35;98872.19;;;23.58;53.36
19526;BME280;9907;42.676;26.348;2022-07-29T00:26:01;98877.88;;;23.56;53.07
19526;BME280;9907;42.676;26.348;2022-07-29T00:28:26;98881.06;;;23.53;53.44
19526;BME280;9907;42.676;26.348;2022-07-29T00:30:52;98873.94;;;23.52;52.97
19526;BME280;9907;42.676;26.348;2022-07-29T00:33:17;98871.41;;;23.51;52.85
19526;BME280;9907;42.676;26.348;2022-07-29T00:35:43;98881.72;;;23.49;53.51
19526;BME280;9907;42.676;26.348;2022-07-29T00:38:16;98878.59;;;23.45;53.59
19526;BME280;9907;42.676;26.348;2022-07-29T00:40:43;98872.31;;;23.45;53.15
19526;BME280;9907;42.676;26.348;2022-07-29T00:43:09;98874.69;;;23.35;53.41
19526;BME280;9907;42.676;26.348;2022-07-29T00:45:34;98884.31;;;23.37;53.02
19526;BME280;9907;42.676;26.348;2022-07-29T00:48:01;98874.44;;;23.36;53.34
19526;BME280;9907;42.676;26.348;2022-07-29T00:50:27;98871.13;;;23.34;53.18
19526;BME280;9907;42.676;26.348;2022-07-29T00:52:52;98874.06;;;23.33;53.17
19526;BME280;9907;42.676;26.348;2022-07-29T00:55:18;98867.19;;;23.30;53.78
19526;BME280;9907;42.676;26.348;2022-07-29T00:57:44;98863.03;;;23.27;53.16
19526;BME280;9907;42.676;26.348;2022-07-29T01:00:14;98868.47;;;23.27;54.17
19526;BME280;9907;42.676;26.348;2022-07-29T01:02:40;98871.41;;;23.26;53.29
19526;BME280;9907;42.676;26.348;2022-07-29T01:05:06;98871.41;;;23.26;53.43
19526;BME280;9907;42.676;26.348;2022-07-29T01:07:34;98865.13;;;23.25;53.68
19526;BME280;9907;42.676;26.348;2022-07-29T01:10:01;98874.19;;;23.19;53.88
19526;BME280;9907;42.676;26.348;2022-07-29T01:12:29;98876.91;;;23.19;53.52
19526;BME280;9907;42.676;26.348;2022-07-29T01:14:58;98873.16;;;23.20;53.80
19526;BME280;9907;42.676;26.348;2022-07-29T01:17:46;98866.47;;;23.16;53.98
19526;BME280;9907;42.676;26.348;2022-07-29T01:20:26;98869.41;;;23.15;53.50
19526;BME280;9907;42.676;26.348;2022-07-29T01:30:49;98857.41;;;22.98;54.05
19526;BME280;9907;42.676;26.348;2022-07-29T01:33:17;98853.88;;;22.91;54.40
19526;BME280;9907;42.676;26.348;2022-07-29T01:36:09;98857.78;;;23.01;53.80
19526;BME280;9907;42.676;26.348;2022-07-29T01:38:38;98850.66;;;23.00;54.06
19526;BME280;9907;42.676;26.348;2022-07-29T01:41:15;98846.94;;;22.95;53.69
19526;BME280;9907;42.676;26.348;2022-07-29T01:43:45;98850.06;;;22.98;54.03
19526;BME280;9907;42.676;26.348;2022-07-29T01:46:20;98862.16;;;23.02;54.15
19526;BME280;9907;42.676;26.348;2022-07-29T01:48:54;98854.22;;;23.01;53.71
19526;BME280;9907;42.676;26.348;2022-07-29T01:51:32;98853.38;;;23.00;53.80
19526;BME280;9907;42.676;26.348;2022-07-29T01:56:32;98853.59;;;22.99;53.97
19526;BME280;9907;42.676;26.348;2022-07-29T01:59:02;98857.41;;;22.98;54.05
19526;BME280;9907;42.676;26.348;2022-07-29T02:01:31;98854.88;;;22.96;53.75
19526;BME280;9907;42.676;26.348;2022-07-29T02:03:59;98848.84;;;22.94;53.51
19526;BME280;9907;42.676;26.348;2022-07-29T02:06:27;98852.59;;;22.93;53.83
19526;BME280;9907;42.676;26.348;2022-07-29T02:08:55;98852.81;;;22.92;53.37
19526;BME280;9907;42.676;26.348;2022-07-29T02:11:22;98845.94;;;22.89;53.74
19526;BME280;9907;42.676;26.348;2022-07-29T02:13:49;98847.81;;;22.89;53.76
19526;BME280;9907;42.676;26.348;2022-07-29T02:16:16;98847.41;;;22.85;54.06
19526;BME280;9907;42.676;26.348;2022-07-29T02:18:44;98841.38;;;22.83;54.28
19526;BME280;9907;42.676;26.348;2022-07-29T02:21:11;98846.03;;;22.76;54.24
19526;BME280;9907;42.676;26.348;2022-07-29T02:23:38;98847.50;;;22.65;54.33
19526;BME280;9907;42.676;26.348;2022-07-29T02:26:05;98845.88;;;22.64;53.92
19526;BME280;9907;42.676;26.348;2022-07-29T02:28:32;98850.03;;;22.67;53.86
19526;BME280;9907;42.676;26.348;2022-07-29T02:31:00;98852.16;;;22.65;54.29
19526;BME280;9907;42.676;26.348;2022-07-29T02:33:28;98853.19;;;22.70;54.36
19526;BME280;9907;42.676;26.348;2022-07-29T02:35:55;98848.38;;;22.72;54.25
19526;BME280;9907;42.676;26.348;2022-07-29T02:38:22;98850.00;;;22.73;54.22
19526;BME280;9907;42.676;26.348;2022-07-29T02:41:10;98847.94;;;22.69;54.38
19526;BME280;9907;42.676;26.348;2022-07-29T02:43:37;98851.56;;;22.56;55.21
19526;BME280;9907;42.676;26.348;2022-07-29T02:46:05;98849.03;;;22.55;54.31
19526;BME280;9907;42.676;26.348;2022-07-29T02:48:36;98850.28;;;22.59;54.90
19526;BME280;9907;42.676;26.348;2022-07-29T02:51:09;98849.84;;;22.62;54.17
19526;BME280;9907;42.676;26.348;2022-07-29T02:53:38;98851.75;;;22.61;54.56
19526;BME280;9907;42.676;26.348;2022-07-29T02:56:13;98846.50;;;22.60;54.23
19526;BME280;9907;42.676;26.348;2022-07-29T02:58:49;98842.75;;;22.54;54.66
19526;BME280;9907;42.676;26.348;2022-07-29T03:01:16;98842.94;;;22.59;54.84
19526;BME280;9907;42.676;26.348;2022-07-29T03:03:45;98848.41;;;22.59;54.79
19526;BME280;9907;42.676;26.348;2022-07-29T03:06:13;98844.00;;;22.58;55.67
19526;BME280;9907;42.676;26.348;2022-07-29T03:08:40;98846.72;;;22.58;54.86
19526;BME280;9907;42.676;26.348;2022-07-29T03:11:08;98847.97;;;22.62;55.26
19526;BME280;9907;42.676;26.348;2022-07-29T03:13:34;98855.69;;;22.65;54.46
19526;BME280;9907;42.676;26.348;2022-07-29T03:16:00;98856.34;;;22.67;55.22
19526;BME280;9907;42.676;26.348;2022-07-29T03:18:26;98855.06;;;22.70;54.95
19526;BME280;9907;42.676;26.348;2022-07-29T03:20:52;98863.22;;;22.70;54.54
19526;BME280;9907;42.676;26.348;2022-07-29T03:23:19;98854.03;;;22.64;55.37
19526;BME280;9907;42.676;26.348;2022-07-29T03:25:45;98856.13;;;22.62;55.10
19526;BME280;9907;42.676;26.348;2022-07-29T03:28:11;98859.91;;;22.68;55.03
19526;BME280;9907;42.676;26.348;2022-07-29T03:30:37;98863.84;;;22.72;55.34
19526;BME280;9907;42.676;26.348;2022-07-29T03:33:02;98860.06;;;22.73;54.79
19526;BME280;9907;42.676;26.348;2022-07-29T03:35:28;98868.88;;;22.75;55.12
19526;BME280;9907;42.676;26.348;2022-07-29T03:37:54;98865.69;;;22.78;55.42
19526;BME280;9907;42.676;26.348;2022-07-29T03:40:25;98876.00;;;22.76;55.31
19526;BME280;9907;42.676;26.348;2022-07-29T03:42:52;98877.88;;;22.69;54.97
19526;BME280;9907;42.676;26.348;2022-07-29T03:45:19;98876.25;;;22.68;55.77
19526;BME280;9907;42.676;26.348;2022-07-29T03:47:50;98873.47;;;22.74;55.59
19526;BME280;9907;42.676;26.348;2022-07-29T03:50:18;98875.53;;;22.79;55.50
19526;BME280;9907;42.676;26.348;2022-07-29T03:52:45;98878.88;;;22.81;55.08
19526;BME280;9907;42.676;26.348;2022-07-29T03:55:12;98879.09;;;22.79;55.65
19526;BME280;9907;42.676;26.348;2022-07-29T03:57:40;98872.97;;;22.84;55.10
19526;BME280;9907;42.676;26.348;2022-07-29T04:00:08;98869.38;;;22.90;56.42
19526;BME280;9907;42.676;26.348;2022-07-29T04:02:34;98870.63;;;22.94;55.82
19526;BME280;9907;42.676;26.348;2022-07-29T04:05:00;98869.13;;;22.98;56.08
19526;BME280;9907;42.676;26.348;2022-07-29T04:07:26;98868.44;;;23.03;56.18
19526;BME280;9907;42.676;26.348;2022-07-29T04:09:51;98869.91;;;23.05;56.18
19526;BME280;9907;42.676;26.348;2022-07-29T04:12:17;98864.00;;;23.08;56.38
19526;BME280;9907;42.676;26.348;2022-07-29T04:14:42;98867.97;;;23.12;56.51
19526;BME280;9907;42.676;26.348;2022-07-29T04:17:08;98867.50;;;23.15;56.63
19526;BME280;9907;42.676;26.348;2022-07-29T04:19:33;98876.91;;;23.19;55.55
19526;BME280;9907;42.676;26.348;2022-07-29T04:22:00;98871.63;;;23.24;56.18
19526;BME280;9907;42.676;26.348;2022-07-29T04:24:26;98875.53;;;23.35;55.40
19526;BME280;9907;42.676;26.348;2022-07-29T04:26:51;98873.53;;;23.49;55.10
19526;BME280;9907;42.676;26.348;2022-07-29T04:29:17;98883.44;;;23.68;54.47
19526;BME280;9907;42.676;26.348;2022-07-29T04:31:43;98885.88;;;23.94;54.67
19526;BME280;9907;42.676;26.348;2022-07-29T04:34:09;98887.63;;;24.25;54.14
19526;BME280;9907;42.676;26.348;2022-07-29T04:36:34;98883.88;;;24.56;53.33
19526;BME280;9907;42.676;26.348;2022-07-29T04:39:00;98893.53;;;24.88;53.32
19526;BME280;9907;42.676;26.348;2022-07-29T04:41:26;98892.78;;;25.23;51.64
19526;BME280;9907;42.676;26.348;2022-07-29T04:43:52;98890.88;;;25.64;51.25
19526;BME280;9907;42.676;26.348;2022-07-29T04:46:18;98890.59;;;25.89;50.61
19526;BME280;9907;42.676;26.348;2022-07-29T04:48:45;98889.16;;;26.22;49.08
19526;BME280;9907;42.676;26.348;2022-07-29T04:51:11;98899.06;;;26.51;49.21
19526;BME280;9907;42.676;26.348;2022-07-29T04:53:36;98883.19;;;26.93;46.87
19526;BME280;9907;42.676;26.348;2022-07-29T04:56:02;98892.28;;;27.43;46.21
19526;BME280;9907;42.676;26.348;2022-07-29T04:58:28;98893.88;;;27.89;44.27
19526;BME280;9907;42.676;26.348;2022-07-29T05:00:53;98888.56;;;28.21;43.98
19526;BME280;9907;42.676;26.348;2022-07-29T05:03:19;98897.19;;;28.51;44.45
19526;BME280;9907;42.676;26.348;2022-07-29T05:05:44;98896.53;;;28.66;44.09
19526;BME280;9907;42.676;26.348;2022-07-29T05:08:09;98909.06;;;28.79;43.39
19526;BME280;9907;42.676;26.348;2022-07-29T05:10:35;98905.19;;;29.01;42.96
19526;BME280;9907;42.676;26.348;2022-07-29T05:13:05;98904.47;;;29.38;42.61
19526;BME280;9907;42.676;26.348;2022-07-29T05:15:32;98911.94;;;29.74;40.82
19526;BME280;9907;42.676;26.348;2022-07-29T05:17:58;98902.00;;;30.10;40.93
19526;BME280;9907;42.676;26.348;2022-07-29T05:20:23;98911.22;;;30.36;39.46
19526;BME280;9907;42.676;26.348;2022-07-29T05:22:54;98905.28;;;30.64;39.31
19526;BME280;9907;42.676;26.348;2022-07-29T05:25:19;98905.97;;;30.97;38.51
19526;BME280;9907;42.676;26.348;2022-07-29T05:27:45;98907.66;;;31.28;37.75
19526;BME280;9907;42.676;26.348;2022-07-29T05:30:11;98911.88;;;31.56;37.58
19526;BME280;9907;42.676;26.348;2022-07-29T05:32:36;98913.22;;;31.78;37.06
19526;BME280;9907;42.676;26.348;2022-07-29T05:35:02;98906.25;;;32.01;36.99
19526;BME280;9907;42.676;26.348;2022-07-29T05:37:27;98899.63;;;32.22;36.67
19526;BME280;9907;42.676;26.348;2022-07-29T05:39:53;98900.91;;;32.45;35.70
19526;BME280;9907;42.676;26.348;2022-07-29T05:42:18;98904.16;;;32.67;35.43
19526;BME280;9907;42.676;26.348;2022-07-29T05:44:44;98905.41;;;32.90;34.76
19526;BME280;9907;42.676;26.348;2022-07-29T05:47:09;98908.88;;;33.16;34.24
19526;BME280;9907;42.676;26.348;2022-07-29T05:49:35;98905.41;;;33.39;34.17
19526;BME280;9907;42.676;26.348;2022-07-29T05:52:00;98906.34;;;33.58;33.60
19526;BME280;9907;42.676;26.348;2022-07-29T05:54:26;98913.13;;;33.76;33.53
19526;BME280;9907;42.676;26.348;2022-07-29T05:56:51;98913.53;;;33.93;33.20
19526;BME280;9907;42.676;26.348;2022-07-29T05:59:17;98917.84;;;34.04;32.52
19526;BME280;9907;42.676;26.348;2022-07-29T06:01:42;98916.38;;;34.17;32.61
19526;BME280;9907;42.676;26.348;2022-07-29T06:04:07;98922.03;;;34.31;32.68
19526;BME280;9907;42.676;26.348;2022-07-29T06:06:34;98921.66;;;34.37;31.95
19526;BME280;9907;42.676;26.348;2022-07-29T06:09:00;98921.47;;;34.52;32.22
19526;BME280;9907;42.676;26.348;2022-07-29T06:11:26;98920.72;;;34.70;32.64
19526;BME280;9907;42.676;26.348;2022-07-29T06:13:52;98923.66;;;34.79;32.11
19526;BME280;9907;42.676;26.348;2022-07-29T06:16:18;98923.22;;;34.91;32.23
19526;BME280;9907;42.676;26.348;2022-07-29T06:18:44;98919.66;;;35.09;32.53
19526;BME280;9907;42.676;26.348;2022-07-29T06:21:09;98926.22;;;35.18;31.88
19526;BME280;9907;42.676;26.348;2022-07-29T06:23:37;98917.13;;;35.12;31.36
19526;BME280;9907;42.676;26.348;2022-07-29T06:26:02;98919.94;;;35.07;32.00
19526;BME280;9907;42.676;26.348;2022-07-29T06:28:28;98923.75;;;35.11;31.10
19526;BME280;9907;42.676;26.348;2022-07-29T06:30:53;98920.16;;;35.11;31.38
19526;BME280;9907;42.676;26.348;2022-07-29T06:33:19;98913.13;;;34.81;31.83
19526;BME280;9907;42.676;26.348;2022-07-29T06:35:45;98912.41;;;34.89;31.88
19526;BME280;9907;42.676;26.348;2022-07-29T06:38:13;98906.44;;;35.01;31.34
19526;BME280;9907;42.676;26.348;2022-07-29T06:40:45;98910.03;;;35.01;30.99
19526;BME280;9907;42.676;26.348;2022-07-29T06:43:37;98908.69;;;34.99;31.72
19526;BME280;9907;42.676;26.348;2022-07-29T06:46:06;98902.31;;;34.80;31.60
19526;BME280;9907;42.676;26.348;2022-07-29T06:48:33;98909.88;;;34.50;32.57
19526;BME280;9907;42.676;26.348;2022-07-29T06:50:59;98905.75;;;34.72;31.63
19526;BME280;9907;42.676;26.348;2022-07-29T06:53:25;98914.59;;;34.26;33.00
19526;BME280;9907;42.676;26.348;2022-07-29T06:55:51;98902.72;;;34.44;32.49
19526;BME280;9907;42.676;26.348;2022-07-29T06:58:16;98902.78;;;34.63;32.38
19526;BME280;9907;42.676;26.348;2022-07-29T07:00:46;98904.03;;;34.76;31.71
19526;BME280;9907;42.676;26.348;2022-07-29T07:03:11;98906.81;;;34.28;32.33
19526;BME280;9907;42.676;26.348;2022-07-29T07:05:37;98903.72;;;34.53;32.18
19526;BME280;9907;42.676;26.348;2022-07-29T07:08:04;98904.78;;;35.00;31.92
19526;BME280;9907;42.676;26.348;2022-07-29T07:10:29;98900.28;;;35.41;31.55
19526;BME280;9907;42.676;26.348;2022-07-29T07:12:55;98896.13;;;35.90;30.78
19526;BME280;9907;42.676;26.348;2022-07-29T07:15:20;98894.06;;;36.28;31.05
19526;BME280;9907;42.676;26.348;2022-07-29T07:17:50;98896.94;;;36.64;30.05
19526;BME280;9907;42.676;26.348;2022-07-29T07:20:16;98904.81;;;36.97;29.84
19526;BME280;9907;42.676;26.348;2022-07-29T07:22:42;98903.03;;;37.29;28.86
19526;BME280;9907;42.676;26.348;2022-07-29T07:25:08;98891.69;;;37.70;29.12
19526;BME280;9907;42.676;26.348;2022-07-29T07:27:34;98898.84;;;38.15;28.72
19526;BME280;9907;42.676;26.348;2022-07-29T07:30:00;98900.41;;;38.69;27.53
19526;BME280;9907;42.676;26.348;2022-07-29T07:32:25;98899.47;;;38.91;27.75
19526;BME280;9907;42.676;26.348;2022-07-29T07:34:51;98894.56;;;39.05;27.56
19526;BME280;9907;42.676;26.348;2022-07-29T07:37:16;98903.13;;;39.52;26.88
19526;BME280;9907;42.676;26.348;2022-07-29T07:39:44;98901.66;;;39.71;26.33
19526;BME280;9907;42.676;26.348;2022-07-29T07:42:10;98897.03;;;39.58;26.73
19526;BME280;9907;42.676;26.348;2022-07-29T07:44:38;98890.94;;;39.82;26.47
19526;BME280;9907;42.676;26.348;2022-07-29T07:47:04;98899.41;;;40.20;26.07
19526;BME280;9907;42.676;26.348;2022-07-29T07:49:30;98899.09;;;40.80;25.82
19526;BME280;9907;42.676;26.348;2022-07-29T07:51:55;98903.91;;;40.79;25.15
19526;BME280;9907;42.676;26.348;2022-07-29T07:54:21;98893.19;;;41.02;25.51
19526;BME280;9907;42.676;26.348;2022-07-29T07:56:47;98895.13;;;41.31;24.84
19526;BME280;9907;42.676;26.348;2022-07-29T07:59:16;98896.88;;;41.36;25.13
19526;BME280;9907;42.676;26.348;2022-07-29T08:01:42;98893.03;;;41.82;24.58
19526;BME280;9907;42.676;26.348;2022-07-29T08:04:08;98891.78;;;41.17;25.23
19526;BME280;9907;42.676;26.348;2022-07-29T08:06:34;98883.31;;;41.46;24.72
19526;BME280;9907;42.676;26.348;2022-07-29T08:09:02;98886.81;;;41.76;24.30
19526;BME280;9907;42.676;26.348;2022-07-29T08:11:28;98890.59;;;41.92;24.38
19526;BME280;9907;42.676;26.348;2022-07-29T08:13:54;98879.41;;;41.39;24.47
19526;BME280;9907;42.676;26.348;2022-07-29T08:16:19;98887.97;;;41.75;24.71
19526;BME280;9907;42.676;26.348;2022-07-29T08:18:45;98879.06;;;41.94;23.92
19526;BME280;9907;42.676;26.348;2022-07-29T08:21:11;98875.03;;;42.52;23.67
19526;BME280;9907;42.676;26.348;2022-07-29T08:23:37;98868.19;;;41.18;24.66
19526;BME280;9907;42.676;26.348;2022-07-29T08:26:11;98872.09;;;41.79;24.50
19526;BME280;9907;42.676;26.348;2022-07-29T08:28:41;98867.84;;;42.06;24.08
19526;BME280;9907;42.676;26.348;2022-07-29T08:31:11;98867.78;;;42.39;23.86
19526;BME280;9907;42.676;26.348;2022-07-29T08:33:37;98868.59;;;42.39;23.63
19526;BME280;9907;42.676;26.348;2022-07-29T08:36:03;98871.97;;;42.33;23.67
19526;BME280;9907;42.676;26.348;2022-07-29T08:38:28;98858.88;;;42.24;23.50
19526;BME280;9907;42.676;26.348;2022-07-29T08:40:54;98861.09;;;42.55;23.53
19526;BME280;9907;42.676;26.348;2022-07-29T08:43:20;98864.13;;;42.87;23.62
19526;BME280;9907;42.676;26.348;2022-07-29T08:45:49;98859.56;;;42.94;23.51
19526;BME280;9907;42.676;26.348;2022-07-29T08:48:20;98857.34;;;42.51;23.43
19526;BME280;9907;42.676;26.348;2022-07-29T08:50:47;98865.44;;;42.53;23.63
19526;BME280;9907;42.676;26.348;2022-07-29T08:53:15;98862.16;;;42.27;24.07
19526;BME280;9907;42.676;26.348;2022-07-29T08:55:47;98863.06;;;41.94;24.07
19526;BME280;9907;42.676;26.348;2022-07-29T08:58:13;98863.06;;;41.94;23.90
19526;BME280;9907;42.676;26.348;2022-07-29T09:00:45;98859.59;;;41.02;24.89
19526;BME280;9907;42.676;26.348;2022-07-29T09:03:15;98851.22;;;40.06;25.87
19526;BME280;9907;42.676;26.348;2022-07-29T09:05:42;98862.13;;;39.90;26.01
19526;BME280;9907;42.676;26.348;2022-07-29T09:08:08;98851.16;;;39.68;26.77
19526;BME280;9907;42.676;26.348;2022-07-29T09:10:37;98836.75;;;40.42;26.23
19526;BME280;9907;42.676;26.348;2022-07-29T09:13:03;98846.25;;;40.58;25.86
19526;BME280;9907;42.676;26.348;2022-07-29T09:15:28;98856.06;;;40.64;25.46
19526;BME280;9907;42.676;26.348;2022-07-29T09:17:54;98856.16;;;40.09;26.07
19526;BME280;9907;42.676;26.348;2022-07-29T09:20:21;98847.31;;;40.36;25.86
19526;BME280;9907;42.676;26.348;2022-07-29T09:22:48;98847.69;;;40.26;26.13
19526;BME280;9907;42.676;26.348;2022-07-29T09:25:35;98844.34;;;39.95;26.31
19526;BME280;9907;42.676;26.348;2022-07-29T09:28:15;98844.63;;;38.95;27.46
19526;BME280;9907;42.676;26.348;2022-07-29T09:30:56;98843.38;;;38.44;28.21
19526;BME280;9907;42.676;26.348;2022-07-29T09:33:25;98841.28;;;37.35;29.16
19526;BME280;9907;42.676;26.348;2022-07-29T09:36:03;98841.31;;;36.50;29.75
19526;BME280;9907;42.676;26.348;2022-07-29T09:38:29;98834.84;;;36.14;30.73
19526;BME280;9907;42.676;26.348;2022-07-29T09:41:03;98838.59;;;35.77;31.48
19526;BME280;9907;42.676;26.348;2022-07-29T09:43:28;98831.91;;;35.45;31.73
19526;BME280;9907;42.676;26.348;2022-07-29T09:45:54;98830.78;;;35.14;31.59
19526;BME280;9907;42.676;26.348;2022-07-29T09:48:24;98830.63;;;34.68;32.63
19526;BME280;9907;42.676;26.348;2022-07-29T09:50:50;98824.94;;;34.36;32.76
19526;BME280;9907;42.676;26.348;2022-07-29T09:53:33;98832.09;;;34.18;32.64
19526;BME280;9907;42.676;26.348;2022-07-29T09:55:59;98839.19;;;33.14;34.62
19526;BME280;9907;42.676;26.348;2022-07-29T09:58:24;98829.34;;;32.93;34.94
19526;BME280;9907;42.676;26.348;2022-07-29T10:00:51;98833.66;;;33.04;34.43
19526;BME280;9907;42.676;26.348;2022-07-29T10:03:18;98821.44;;;33.15;34.58
19526;BME280;9907;42.676;26.348;2022-07-29T10:05:45;98815.38;;;33.13;35.27
19526;BME280;9907;42.676;26.348;2022-07-29T10:08:12;98813.13;;;33.15;35.19
19526;BME280;9907;42.676;26.348;2022-07-29T10:10:42;98817.56;;;33.16;34.76
19526;BME280;9907;42.676;26.348;2022-07-29T10:13:13;98823.50;;;32.99;35.20
19526;BME280;9907;42.676;26.348;2022-07-29T10:15:41;98819.19;;;32.78;34.87
19526;BME280;9907;42.676;26.348;2022-07-29T10:18:11;98822.00;;;32.73;35.63
19526;BME280;9907;42.676;26.348;2022-07-29T10:20:38;98812.94;;;32.57;35.60
19526;BME280;9907;42.676;26.348;2022-07-29T10:23:04;98823.50;;;32.45;35.82
19526;BME280;9907;42.676;26.348;2022-07-29T10:25:30;98811.78;;;32.04;36.04
19526;BME280;9907;42.676;26.348;2022-07-29T10:27:56;98817.91;;;32.11;36.39
19526;BME280;9907;42.676;26.348;2022-07-29T10:30:23;98820.88;;;32.20;36.30
19526;BME280;9907;42.676;26.348;2022-07-29T10:38:34;98797.09;;;32.29;35.98
19526;BME280;9907;42.676;26.348;2022-07-29T10:44:04;98800.75;;;32.09;36.46
19526;BME280;9907;42.676;26.348;2022-07-29T10:46:35;98790.22;;;32.16;36.15
19526;BME280;9907;42.676;26.348;2022-07-29T10:49:21;98800.19;;;32.12;35.79
19526;BME280;9907;42.676;26.348;2022-07-29T10:54:36;98793.97;;;31.66;36.33
19526;BME280;9907;42.676;26.348;2022-07-29T10:57:27;98791.69;;;31.83;36.26
19526;BME280;9907;42.676;26.348;2022-07-29T11:05:06;98792.22;;;31.96;36.19
19526;BME280;9907;42.676;26.348;2022-07-29T11:07:34;98781.44;;;31.94;36.29
19526;BME280;9907;42.676;26.348;2022-07-29T11:15:10;98773.16;;;31.94;36.79
19526;BME280;9907;42.676;26.348;2022-07-29T11:23:00;98766.84;;;31.83;36.04
19526;BME280;9907;42.676;26.348;2022-07-29T11:25:26;98766.31;;;31.81;35.86
19526;BME280;9907;42.676;26.348;2022-07-29T11:27:54;98766.53;;;31.90;36.09
19526;BME280;9907;42.676;26.348;2022-07-29T11:30:51;98766.81;;;31.94;35.46
19526;BME280;9907;42.676;26.348;2022-07-29T11:33:31;98765.44;;;31.96;34.75
19526;BME280;9907;42.676;26.348;2022-07-29T11:36:26;98767.91;;;31.98;35.22
19526;BME280;9907;42.676;26.348;2022-07-29T11:39:27;98763.25;;;31.83;36.27
19526;BME280;9907;42.676;26.348;2022-07-29T11:41:53;98752.22;;;31.83;36.14
19526;BME280;9907;42.676;26.348;2022-07-29T11:47:23;98754.94;;;31.93;36.34
19526;BME280;9907;42.676;26.348;2022-07-29T11:49:50;98758.50;;;31.99;36.72
19526;BME280;9907;42.676;26.348;2022-07-29T11:52:19;98750.22;;;32.04;36.64
19526;BME280;9907;42.676;26.348;2022-07-29T11:54:50;98750.72;;;32.06;36.44
19526;BME280;9907;42.676;26.348;2022-07-29T11:57:19;98752.97;;;32.09;35.47
19526;BME280;9907;42.676;26.348;2022-07-29T11:59:46;98741.66;;;32.00;35.57
19526;BME280;9907;42.676;26.348;2022-07-29T12:02:13;98736.41;;;31.99;35.03
19526;BME280;9907;42.676;26.348;2022-07-29T12:04:53;98739.69;;;32.01;34.96
19526;BME280;9907;42.676;26.348;2022-07-29T12:07:35;98745.78;;;32.03;35.26
19526;BME280;9907;42.676;26.348;2022-07-29T12:10:01;98731.19;;;31.92;35.84
19526;BME280;9907;42.676;26.348;2022-07-29T12:12:27;98731.72;;;31.99;36.43
19526;BME280;9907;42.676;26.348;2022-07-29T12:14:52;98730.88;;;32.04;36.02
19526;BME280;9907;42.676;26.348;2022-07-29T12:17:30;98731.97;;;32.03;35.72
19526;BME280;9907;42.676;26.348;2022-07-29T12:19:58;98721.75;;;32.08;35.52
19526;BME280;9907;42.676;26.348;2022-07-29T12:24:55;98711.50;;;32.14;35.42
19526;BME280;9907;42.676;26.348;2022-07-29T12:27:25;98700.47;;;32.14;35.85
19526;BME280;9907;42.676;26.348;2022-07-29T12:29:58;98713.72;;;32.12;35.51
19526;BME280;9907;42.676;26.348;2022-07-29T12:32:40;98715.69;;;32.06;35.78
19526;BME280;9907;42.676;26.348;2022-07-29T12:35:08;98705.75;;;32.00;35.81
19526;BME280;9907;42.676;26.348;2022-07-29T12:37:35;98701.91;;;31.96;36.00
19526;BME280;9907;42.676;26.348;2022-07-29T12:40:05;98705.19;;;31.98;35.60
19526;BME280;9907;42.676;26.348;2022-07-29T12:42:32;98702.69;;;31.97;35.80
19526;BME280;9907;42.676;26.348;2022-07-29T12:44:58;98697.75;;;31.99;36.38
19526;BME280;9907;42.676;26.348;2022-07-29T12:47:24;98696.59;;;32.05;36.36
19526;BME280;9907;42.676;26.348;2022-07-29T12:49:50;98692.50;;;32.07;35.96
19526;BME280;9907;42.676;26.348;2022-07-29T12:52:32;98688.31;;;32.05;35.79
19526;BME280;9907;42.676;26.348;2022-07-29T12:54:58;98683.91;;;32.04;35.66
19526;BME280;9907;42.676;26.348;2022-07-29T12:57:24;98685.00;;;32.08;35.70
19526;BME280;9907;42.676;26.348;2022-07-29T13:00:10;98692.72;;;32.06;35.12
19526;BME280;9907;42.676;26.348;2022-07-29T13:02:38;98683.91;;;32.04;35.39
19526;BME280;9907;42.676;26.348;2022-07-29T13:05:06;98686.97;;;32.07;35.06
19526;BME280;9907;42.676;26.348;2022-07-29T13:07:33;98688.91;;;32.07;35.28
19526;BME280;9907;42.676;26.348;2022-07-29T13:10:17;98682.22;;;32.13;35.42
19526;BME280;9907;42.676;26.348;2022-07-29T13:13:03;98665.31;;;32.19;34.48
19526;BME280;9907;42.676;26.348;2022-07-29T13:15:29;98673.91;;;32.18;35.12
19526;BME280;9907;42.676;26.348;2022-07-29T13:17:54;98675.53;;;32.19;34.80
19526;BME280;9907;42.676;26.348;2022-07-29T13:20:24;98672.00;;;32.13;34.97
19526;BME280;9907;42.676;26.348;2022-07-29T13:22:50;98678.34;;;32.14;34.87
19526;BME280;9907;42.676;26.348;2022-07-29T13:25:24;98677.28;;;32.10;34.56
19526;BME280;9907;42.676;26.348;2022-07-29T13:27:50;98688.91;;;32.07;34.52
19526;BME280;9907;42.676;26.348;2022-07-29T13:30:15;98675.09;;;31.97;34.74
19526;BME280;9907;42.676;26.348;2022-07-29T13:32:41;98669.56;;;31.97;35.32
19526;BME280;9907;42.676;26.348;2022-07-29T13:35:07;98670.69;;;31.96;34.83
19526;BME280;9907;42.676;26.348;2022-07-29T13:37:34;98672.88;;;32.04;34.51
19526;BME280;9907;42.676;26.348;2022-07-29T13:40:04;98663.44;;;32.05;34.45
19526;BME280;9907;42.676;26.348;2022-07-29T13:42:31;98654.06;;;32.11;34.35
19526;BME280;9907;42.676;26.348;2022-07-29T13:44:57;98664.56;;;32.09;34.73
19526;BME280;9907;42.676;26.348;2022-07-29T13:47:23;98663.97;;;32.12;33.95
19526;BME280;9907;42.676;26.348;2022-07-29T13:49:48;98665.56;;;32.23;34.11